EW3705 Fort Myers FL US current weather conditions

sailwx.info

Wind from 152 at 0 knots gusting 4

Air temperature 30.0° C
Dewpoint 25.3° C

Last reported at 2020-Aug-05 18:00 UTC.
Time now 2020-Aug-05 19:05 UTC

Location: N 26°39' W 081°50'.
View on Google Maps.

See reports from other nearby stations

  
Tides and Currents Weather Stations Pressure Air Temp Water Temp Dewpoint Dewpoint Depression Visibility Wind Speed Wind Dir Waves Ship Positions
date/time (UTC)wind fromknots sea level pressurealtimeterstation pressurevisibilityair tempwater tempwave heightnotes
2020-Aug-05 18:00 152 0 gusting 4 30.0
2020-Aug-05 17:45 152 1 gusting 4 30.0
2020-Aug-05 17:30 152 30.0
2020-Aug-05 17:16 178 0 gusting 5 30.0
2020-Aug-05 17:00 131 1 gusting 3 29.4
2020-Aug-05 16:45 130 2 gusting 7 29.4
2020-Aug-05 16:31 175 1 gusting 4 29.4
2020-Aug-05 16:15 189 2 gusting 8 30.0
2020-Aug-05 16:00 211 6 gusting 9 30.0
2020-Aug-05 15:45 240 4 gusting 8 30.0
2020-Aug-05 15:30 168 2 gusting 6 29.4
2020-Aug-05 15:15 169 4 gusting 6 28.9
2020-Aug-05 15:01 203 2 gusting 6 28.3
2020-Aug-05 14:46 214 5 gusting 7 27.8
2020-Aug-05 14:31 171 1 gusting 6 27.8
2020-Aug-05 14:17 203 4 gusting 7 27.8
2020-Aug-05 14:02 226 2 gusting 6 27.2
2020-Aug-05 13:47 252 3 gusting 8 27.2
2020-Aug-05 13:32 199 4 gusting 8 27.8
2020-Aug-05 13:16 219 2 gusting 5 27.8
2020-Aug-05 13:01 236 1 gusting 3 27.2
2020-Aug-05 12:47 231 1 gusting 4 26.7
2020-Aug-05 12:31 232 1 gusting 4 26.1
2020-Aug-05 12:16 220 2 gusting 5 25.6
2020-Aug-05 12:00 072 25.0
2020-Aug-05 11:47 072 1 gusting 5 25.0
2020-Aug-05 11:30 067 25.0
2020-Aug-05 11:16 067 0 gusting 3 25.0
2020-Aug-05 11:00 067 24.4
2020-Aug-05 10:45 067 24.4
2020-Aug-05 10:30 063 3 gusting 6 24.4
2020-Aug-05 10:15 063 0 gusting 5 24.4
2020-Aug-05 10:01 063 2 gusting 4 24.4
2020-Aug-05 09:45 063 1 gusting 4 24.4
2020-Aug-05 09:30 063 1 gusting 4 24.4
2020-Aug-05 09:15 061 2 gusting 6 25.0
2020-Aug-05 09:00 066 1 gusting 5 25.0
2020-Aug-05 08:45 066 1 gusting 4 25.0
2020-Aug-05 08:30 066 1 gusting 4 25.0
2020-Aug-05 08:15 066 1 gusting 2 25.6
2020-Aug-05 08:00 066 1 gusting 2 25.6
2020-Aug-05 07:45 066 1 gusting 3 25.6
2020-Aug-05 07:30 066 0 gusting 3 25.6
2020-Aug-05 07:15 066 25.6
2020-Aug-05 07:00 066 0 gusting 2 25.6
2020-Aug-05 06:45 066 25.6
2020-Aug-05 06:30 066 25.6
2020-Aug-05 06:17 066 25.6
2020-Aug-05 06:01 066 0 gusting 2 25.6
2020-Aug-05 05:47 066 0 gusting 2 25.6
2020-Aug-05 05:32 066 26.1
2020-Aug-05 05:16 066 25.6
2020-Aug-05 05:01 066 26.1
2020-Aug-05 04:46 066 25.6
2020-Aug-05 04:31 066 25.6
2020-Aug-05 04:16 066 0 gusting 2 25.6
2020-Aug-05 04:01 066 25.6
2020-Aug-05 03:45 066 25.6
2020-Aug-05 03:31 066 25.6
2020-Aug-05 03:17 066 26.1
2020-Aug-05 03:02 066 0 gusting 3 25.6
2020-Aug-05 02:46 066 1 gusting 4 25.6
2020-Aug-05 02:31 066 1 gusting 5 25.6
2020-Aug-05 02:15 058 1 gusting 3 26.1
2020-Aug-05 02:01 057 1 gusting 3 26.1
2020-Aug-05 01:46 058 0 gusting 3 26.1
2020-Aug-05 01:31 057 2 gusting 5 26.1
2020-Aug-05 01:15 056 0 gusting 5 26.1
2020-Aug-05 01:00 053 3 gusting 7 26.1
2020-Aug-05 00:46 082 3 gusting 7 26.1
2020-Aug-05 00:31 067 4 gusting 8 26.7
2020-Aug-05 00:17 076 6 gusting 10 27.2
2020-Aug-05 00:00 059 5 gusting 10 27.8
2020-Aug-04 23:45 049 2 gusting 4 27.8
2020-Aug-04 23:31 032 4 gusting 6 27.8
2020-Aug-04 23:15 073 2 gusting 7 28.3
2020-Aug-04 23:00 105 5 gusting 9 28.3
2020-Aug-04 22:45 069 5 gusting 11 28.9
2020-Aug-04 22:30 049 7 gusting 12 31.1
2020-Aug-04 22:15 231 4 gusting 11 32.8
2020-Aug-04 22:00 234 6 gusting 9 33.3
2020-Aug-04 21:45 252 6 gusting 12 33.3
2020-Aug-04 21:30 254 7 gusting 12 32.8
2020-Aug-04 21:15 245 5 gusting 13 32.8
2020-Aug-04 21:00 231 7 gusting 14 32.8
2020-Aug-04 20:45 220 7 gusting 11 33.9
2020-Aug-04 20:30 234 8 gusting 15 33.3
2020-Aug-04 20:15 240 6 gusting 14 33.3
2020-Aug-04 20:00 190 7 gusting 13 33.9
2020-Aug-04 19:45 225 6 gusting 14 33.9
2020-Aug-04 19:30 246 6 gusting 15 33.9
2020-Aug-04 19:15 211 7 gusting 14 33.3
2020-Aug-04 19:01 218 5 gusting 10 33.9
2020-Aug-04 18:46 209 6 gusting 10 33.3
2020-Aug-04 18:32 194 5 gusting 7 33.9
2020-Aug-04 18:16 242 4 gusting 8 33.9
2020-Aug-04 18:00 190 0 gusting 5 33.3
2020-Aug-04 17:46 201 2 gusting 5 33.3
2020-Aug-04 17:31 192 1 gusting 6 33.3
2020-Aug-04 17:16 208 2 gusting 6 33.3
2020-Aug-04 17:01 219 2 gusting 5 32.8
2020-Aug-04 16:46 199 0 gusting 5 32.2
2020-Aug-04 16:32 137 0 gusting 3 32.8
2020-Aug-04 16:15 138 1 gusting 4 32.8
2020-Aug-04 16:01 136 2 gusting 6 32.8
2020-Aug-04 15:46 117 0 gusting 5 32.8
2020-Aug-04 15:31 046 32.2
2020-Aug-04 15:16 292 1 gusting 6 31.1
2020-Aug-04 15:01 317 1 gusting 5 31.7
2020-Aug-04 14:45 013 0 gusting 5 31.7
2020-Aug-04 14:30 305 0 gusting 3 31.7
2020-Aug-04 14:16 300 0 gusting 4 31.1
2020-Aug-04 14:00 296 0 gusting 3 30.6
2020-Aug-04 13:45 312 30.0
2020-Aug-04 13:30 313 30.0
2020-Aug-04 13:15 313 30.0
2020-Aug-04 13:00 279 0 gusting 3 30.0
2020-Aug-04 12:47 279 30.0
2020-Aug-04 12:32 279 28.9
2020-Aug-04 12:17 276 28.3
2020-Aug-04 12:01 279 27.8
2020-Aug-04 11:46 279 27.8
2020-Aug-04 11:31 279 27.2
2020-Aug-04 11:16 279 27.2
2020-Aug-04 11:01 279 27.2
2020-Aug-04 10:45 279 27.2
2020-Aug-04 10:31 279 27.2
2020-Aug-04 10:16 279 27.2
2020-Aug-04 09:46 279 0 gusting 1 27.2
2020-Aug-04 09:30 279 27.2
2020-Aug-04 09:16 279 27.2
2020-Aug-04 09:00 279 27.2
2020-Aug-04 08:45 279 27.2
2020-Aug-04 08:30 279 27.2
2020-Aug-04 08:16 279 27.2
2020-Aug-04 08:00 279 27.2
2020-Aug-04 07:45 279 27.2
2020-Aug-04 07:30 279 27.2
2020-Aug-04 07:15 279 27.2
2020-Aug-04 07:01 279 27.2
2020-Aug-04 06:46 279 27.2
2020-Aug-04 06:30 279 27.8
2020-Aug-04 06:16 279 27.8
2020-Aug-04 06:00 279 27.8
2020-Aug-04 05:45 279 27.8
2020-Aug-04 05:30 279 27.8
2020-Aug-04 05:15 279 28.3
2020-Aug-04 04:47 279 28.3
2020-Aug-04 04:31 279 28.3
2020-Aug-04 04:16 279 28.9
2020-Aug-04 04:01 279 28.9
2020-Aug-04 03:46 279 28.9
2020-Aug-04 03:31 279 28.9
2020-Aug-04 03:16 279 28.9
2020-Aug-04 03:01 279 28.9
2020-Aug-04 02:46 279 1 gusting 3 28.9
2020-Aug-04 02:31 279 1 gusting 4 29.4
2020-Aug-04 02:16 279 0 gusting 4 29.4
2020-Aug-04 02:01 279 0 gusting 4 29.4
2020-Aug-04 01:47 279 2 gusting 4 29.4
2020-Aug-04 01:31 279 2 gusting 4 30.0
2020-Aug-04 01:16 279 1 gusting 4 30.0
2020-Aug-04 01:02 279 1 gusting 3 30.0
2020-Aug-04 00:47 279 0 gusting 4 30.0
2020-Aug-04 00:31 279 0 gusting 6 30.6
2020-Aug-04 00:16 280 2 gusting 6 30.6
2020-Aug-04 00:00 279 4 gusting 7 30.6
2020-Aug-03 23:46 271 3 gusting 7 31.1
2020-Aug-03 23:31 279 2 gusting 8 31.7
2020-Aug-03 23:16 297 2 gusting 9 31.7
2020-Aug-03 23:01 288 2 gusting 9 32.2
2020-Aug-03 22:32 316 3 gusting 9 32.8
2020-Aug-03 22:16 288 2 gusting 7 32.8
2020-Aug-03 22:02 267 3 gusting 9 32.8
2020-Aug-03 21:45 299 2 gusting 9 32.8
2020-Aug-03 21:30 267 2 gusting 6 32.8
2020-Aug-03 21:16 250 6 gusting 10 32.8
2020-Aug-03 21:01 284 4 gusting 9 32.8
2020-Aug-03 20:46 261 6 gusting 10 32.8
2020-Aug-03 20:30 241 4 gusting 12 32.8
2020-Aug-03 20:16 307 2 gusting 10 33.3
2020-Aug-03 20:00 281 5 gusting 11 32.8
2020-Aug-03 19:45 304 3 gusting 6 32.8
2020-Aug-03 19:31 250 5 gusting 8 32.8
2020-Aug-03 19:15 264 5 gusting 10 32.8
2020-Aug-03 19:00 277 1 gusting 7 32.8